KFWS

Fort Worth Spinks Airport

Fort Worth, Texas, USA
METAR KFWS 240135Z AUTO 13004KT 10SM CLR 26/20 A3000 RMK AO2 T02630196
Observed Flight Rules
May-24 @ 01:35 UTC (20 minutes ago) Visual Flight Rules
Wind Visibility Clouds
130° at 4 knots 10 miles
  • Clear skies
Temperatures Readings
Current 26°C / 79°F
Dewpoint 20°C / 68°F
Humidity 70%
Altimeter 30" Hg
Pressure 1016 hPa
Elevation 208
METAR KFWS 240135Z AUTO 13004KT 10SM CLR 26/20 A3000 RMK AO2 T02630196
Observed Flight Rules
May-24 @ 01:35 UTC
(20 minutes ago)
VFR
Wind Visibility
130° at 4 knots 10 miles
Clouds
  • Clear skies
Temperature Dewpoint
26°C / 79°F 20°C / 68°F
Humidity Altimeter Pressure
70% 30" Hg 1016 hPa